SBBR/BSB METAR and TAF weather

Enter ICAO airport designator
Station Type Date Time Source
SBBR METAR 2019/08/25 18:00 UTC NOAA

SBBR 251800Z 10010KT 060V130 CAVOK 30/07 Q1021


Station Type Date Time Source
SBBR Decoded METAR 2019/08/25 18:00 UTC NOAA

Station name not available
Aug 25, 2019 - 02:00 PM EDT / 2019.08.25 1800 UTC
Wind: from the E (100 degrees) at 12 MPH (10 KT) (direction variable):0
Visibility: greater than 7 mile(s):0
Temperature: 86 F (30 C)
Dew Point: 44 F (7 C)
Relative Humidity: 23%
Pressure (altimeter): 30.15 in. Hg (1021 hPa)
ob: SBBR 251800Z 10010KT 060V130 CAVOK 30/07 Q1021
cycle: 18

Station Type Date Time Source
SBBR TAF 2019/08/25 18:34 UTC NOAA

TAF SBBR 251600Z 2518/2618 06010KT CAVOK TN16/2607Z TX30/2618Z
BECMG 2519/2521 13008KT
BECMG 2522/2524 09003KT
BECMG 2602/2604 06003KT
BECMG 2607/2609 12005KT
BECMG 2612/2614 07010KT
RMK PEH

Example: see airport list